Hovedside
METAR-TAF:

METAR-TAF

Lufthavner :

Luleå lufthavn

Luleå, Sverige

breddegrad: 65-33N, lengdegrad: 022-08E, høyde over havet: 17 m

Gjeldene værobservasjon

Denne rapporten ble laget for 24 minutter siden, klokken 03:20 UTC
Vind 13 kt fra Sør
Temperatur 16°C
Luftfuktighet 88%
Trykk 1007 hPa
Sikt 10 km eller mer
lette regnbyger

METAR: ESPA 180320Z AUTO 17013KT 9999 -SHRA BKN009/// OVC012/// 16/14 Q1007

Tid: 05:44 (03:44 UTC)

Varsel

Denne rapporten ble laget for 13 timer og 14 minutter siden, klokken 14:30 UTC
Varsel gyldig fra 17. klokken 15 UTC til 17. klokken 19 UTC
Vind 12 kt fra Sør
Sikt 10 km eller mer
ingen skyer under 1500 m og ingen bygeskyer
Sannsynlighet 40%
fra 17. klokken 16 UTC til 17. klokken 19 UTC
Vind 15 kt fra Sør-sørøst med vindkast opp mot 25 kt
Brutte skyer i en høyde av 1000 ft
Brutte skyer i en høyde av 2500 ft, Bygeskyer.
regnbyger

TAF: ESPA 171430Z 1715/1719 18012KT CAVOK PROB40 1716/1719 15015G25KT SHRA BKN010 BKN025CB

Værobservasjoner og værvarsel for over 4000 flyplasser (METAR- og TAF-rapporter).

Tilgjengelige stasjoner er representert av de røde og gule prikkene på kartet.

Hold musepekeren over prikken for å se navnet på stasjonen.

Klikk så for å se værobservasjoner og -varsler.

For å forandre kartet kan du klikke på den grønne knappen med svart kryss for å zoome inn, på den grønne knappen med strek for å zoome ut, eller på de grønne pilene for å se tilstøtende kart.


METAR-TAF: